createdAt,value
2018-10-05T00:02:18.198Z,100663.02
2018-10-05T00:04:45.742Z,100659.48
2018-10-05T00:07:13.327Z,100663.47
2018-10-05T00:09:41.210Z,100656.91
2018-10-05T00:12:08.762Z,100658.81
2018-10-05T00:14:36.416Z,100655.70
2018-10-05T00:17:03.993Z,100660.06
2018-10-05T00:19:31.560Z,100652.93
2018-10-05T00:22:00.033Z,100656.38
2018-10-05T00:24:27.969Z,100652.65
2018-10-05T00:26:55.501Z,100651.16
2018-10-05T00:29:23.122Z,100644.02
2018-10-05T00:31:51.165Z,100639.58
2018-10-05T00:34:18.807Z,100641.28
2018-10-05T00:36:46.366Z,100630.28
2018-10-05T00:39:13.970Z,100633.23
2018-10-05T00:41:42.010Z,100636.73
2018-10-05T00:44:09.626Z,100631.25
2018-10-05T00:46:37.222Z,100626.69
2018-10-05T00:49:05.193Z,100625.36
2018-10-05T00:51:32.757Z,100621.83
2018-10-05T00:54:00.350Z,100619.84
2018-10-05T00:56:27.945Z,100613.41
2018-10-05T00:58:58.818Z,100613.61
2018-10-05T01:01:26.366Z,100614.27
2018-10-05T01:03:53.951Z,100610.45
2018-10-05T01:06:21.532Z,100610.28
2018-10-05T01:08:49.129Z,100602.68
2018-10-05T01:11:17.588Z,100598.03
2018-10-05T01:13:45.552Z,100594.70
2018-10-05T01:16:13.721Z,100595.37
2018-10-05T01:18:41.251Z,100596.89
2018-10-05T01:21:09.089Z,100588.64
2018-10-05T01:23:36.927Z,100587.39
2018-10-05T01:26:04.519Z,100588.92
2018-10-05T01:28:32.053Z,100590.03
2018-10-05T01:30:59.950Z,100584.06
2018-10-05T01:33:27.497Z,100586.91
2018-10-05T01:35:55.013Z,100577.13
2018-10-05T01:38:22.549Z,100579.33
2018-10-05T01:40:50.608Z,100567.96
2018-10-05T01:43:18.216Z,100567.96
2018-10-05T01:45:45.770Z,100570.13
2018-10-05T01:48:13.358Z,100567.96
2018-10-05T01:50:40.938Z,100570.23
2018-10-05T01:53:08.457Z,100563.98
2018-10-05T01:55:36.022Z,100566.34
2018-10-05T01:58:04.021Z,100558.95
2018-10-05T02:00:31.553Z,100559.91
2018-10-05T02:02:59.085Z,100556.47
2018-10-05T02:05:26.647Z,100552.48
2018-10-05T02:07:54.706Z,100550.05
2018-10-05T02:10:22.320Z,100546.63
2018-10-05T02:12:49.889Z,100543.31
2018-10-05T02:15:17.425Z,100540.20
2018-10-05T02:17:45.318Z,100538.12
2018-10-05T02:20:12.891Z,100540.11
2018-10-05T02:22:40.446Z,100536.03
2018-10-05T02:25:08.293Z,100535.82
2018-10-05T02:27:35.932Z,100523.64
2018-10-05T02:30:03.466Z,100522.89
2018-10-05T02:32:31.940Z,100523.27
2018-10-05T02:34:59.956Z,100527.24
2018-10-05T02:37:27.611Z,100521.77
2018-10-05T02:39:55.170Z,100523.88
2018-10-05T02:42:22.774Z,100517.17
2018-10-05T02:44:50.829Z,100518.17
2018-10-05T02:47:18.388Z,100512.48
2018-10-05T02:49:45.978Z,100506.89
2018-10-05T02:52:14.868Z,100510.12
2018-10-05T02:54:42.496Z,100504.52
2018-10-05T02:57:10.077Z,100506.42
2018-10-05T02:59:37.644Z,100499.88
2018-10-05T03:02:05.790Z,100502.15
2018-10-05T03:04:36.686Z,100507.83
2018-10-05T03:07:04.297Z,100502.81
2018-10-05T03:09:32.370Z,100500.92
2018-10-05T03:11:59.970Z,100494.58
2018-10-05T03:14:27.498Z,100490.89
2018-10-05T03:16:56.393Z,100493.43
2018-10-05T03:19:25.163Z,100485.88
2018-10-05T03:21:52.720Z,100489.56
2018-10-05T03:24:20.557Z,100483.10
2018-10-05T03:26:48.122Z,100479.78
2018-10-05T03:29:15.721Z,100480.55
2018-10-05T03:31:43.750Z,100483.00
2018-10-05T03:34:11.305Z,100484.03
2018-10-05T03:36:38.862Z,100481.46
2018-10-05T03:39:06.721Z,100473.25
2018-10-05T03:41:34.274Z,100470.22
2018-10-05T03:44:01.822Z,100473.70
2018-10-05T03:46:29.398Z,100472.30
2018-10-05T03:48:57.461Z,100471.34
2018-10-05T03:51:25.037Z,100467.75
2018-10-05T03:53:53.238Z,100464.23
2018-10-05T03:56:21.401Z,100461.12
2018-10-05T03:58:50.279Z,100459.33
2018-10-05T04:01:18.458Z,100453.16
2018-10-05T04:03:46.095Z,100455.36
2018-10-05T04:06:14.091Z,100467.17
2018-10-05T04:08:41.631Z,100459.80
2018-10-05T04:11:09.226Z,100460.45
2018-10-05T04:13:37.462Z,100461.59
2018-10-05T04:16:05.392Z,100464.79
2018-10-05T04:18:36.485Z,100455.22
2018-10-05T04:21:04.034Z,100451.36
2018-10-05T04:23:32.029Z,100449.66
2018-10-05T04:25:59.623Z,100446.59
2018-10-05T04:28:27.195Z,100443.56
2018-10-05T04:30:55.216Z,100442.24
2018-10-05T04:33:22.783Z,100437.89
2018-10-05T04:35:50.358Z,100438.01
2018-10-05T04:38:18.775Z,100439.79
2018-10-05T04:40:46.469Z,100437.22
2018-10-05T04:43:14.080Z,100428.52
2018-10-05T04:45:43.034Z,100437.80
2018-10-05T04:48:12.222Z,100434.28
2018-10-05T04:50:39.897Z,100440.82
2018-10-05T04:53:07.888Z,100433.63
2018-10-05T04:55:35.513Z,100438.01
2018-10-05T04:58:03.098Z,100433.25
2018-10-05T05:00:31.037Z,100434.48
2018-10-05T05:02:58.585Z,100433.13
2018-10-05T05:05:27.226Z,100429.52
2018-10-05T05:07:55.267Z,100428.09
2018-10-05T05:10:22.872Z,100427.80
2018-10-05T05:12:50.439Z,100429.70
2018-10-05T05:15:18.421Z,100430.56
2018-10-05T05:17:46.935Z,100431.89
2018-10-05T05:20:14.570Z,100430.08
2018-10-05T05:22:42.742Z,100428.66
2018-10-05T05:25:10.286Z,100424.61
2018-10-05T05:27:37.871Z,100423.55
2018-10-05T05:30:05.901Z,100428.69
2018-10-05T05:32:33.494Z,100429.81
2018-10-05T05:35:02.371Z,100417.89
2018-10-05T05:37:31.091Z,100416.56
2018-10-05T05:39:59.311Z,100420.54
2018-10-05T05:42:28.870Z,100422.23
2018-10-05T05:44:58.686Z,100415.16
2018-10-05T05:47:26.262Z,100405.97
2018-10-05T05:49:53.910Z,100405.97
2018-10-05T05:52:21.769Z,100400.66
2018-10-05T05:54:49.348Z,100405.12
2018-10-05T05:57:16.927Z,100402.48
2018-10-05T05:59:44.975Z,100400.66
2018-10-05T06:02:13.155Z,100401.04
2018-10-05T06:04:40.878Z,100397.36
2018-10-05T06:07:08.869Z,100398.52
2018-10-05T06:09:36.466Z,100400.39
2018-10-05T06:12:04.782Z,100400.69
2018-10-05T06:14:33.773Z,100395.97
2018-10-05T06:17:01.355Z,100395.56
2018-10-05T06:19:30.650Z,100393.98
2018-10-05T06:21:58.675Z,100388.40
2018-10-05T06:24:26.263Z,100394.73
2018-10-05T06:26:55.108Z,100388.57
2018-10-05T06:29:23.090Z,100384.67
2018-10-05T06:31:50.649Z,100389.14
2018-10-05T06:34:18.234Z,100388.02
2018-10-05T06:36:46.225Z,100391.91
2018-10-05T06:39:13.835Z,100387.42
2018-10-05T06:41:41.402Z,100392.72
2018-10-05T06:44:09.563Z,100390.55
2018-10-05T06:46:37.727Z,100394.02
2018-10-05T06:49:06.144Z,100390.98
2018-10-05T06:51:34.009Z,100397.02
2018-10-05T06:54:01.576Z,100392.34
2018-10-05T06:56:29.159Z,100391.36
2018-10-05T06:58:57.043Z,100393.90
2018-10-05T07:01:24.795Z,100395.56
2018-10-05T07:03:52.403Z,100395.91
2018-10-05T07:06:20.494Z,100403.26
2018-10-05T07:08:48.084Z,100400.84
2018-10-05T07:11:15.758Z,100390.69
2018-10-05T07:13:43.633Z,100391.56
2018-10-05T07:16:12.418Z,100381.48
2018-10-05T07:18:39.973Z,100382.02
2018-10-05T07:21:07.524Z,100381.94
2018-10-05T07:23:35.091Z,100380.72
2018-10-05T07:26:03.260Z,100381.91
2018-10-05T07:28:30.953Z,100378.14
2018-10-05T07:31:00.610Z,100378.73
2018-10-05T07:33:28.650Z,100378.36
2018-10-05T07:35:56.627Z,100377.69
2018-10-05T07:38:24.221Z,100369.78
2018-10-05T07:40:52.182Z,100368.63
2018-10-05T07:43:19.749Z,100368.54
2018-10-05T07:45:47.318Z,100359.64
2018-10-05T07:48:16.137Z,100366.70
2018-10-05T07:50:43.822Z,100368.89
2018-10-05T07:53:11.420Z,100361.50
2018-10-05T07:55:39.383Z,100361.47
2018-10-05T07:58:06.963Z,100364.48
2018-10-05T08:00:34.532Z,100362.02
2018-10-05T08:03:04.225Z,100359.42
2018-10-05T08:05:31.822Z,100360.03
2018-10-05T08:08:00.232Z,100359.86
2018-10-05T08:10:28.263Z,100356.77
2018-10-05T08:12:55.836Z,100354.48
2018-10-05T08:15:23.455Z,100347.32
2018-10-05T08:17:51.455Z,100350.96
2018-10-05T08:20:19.025Z,100343.17
2018-10-05T08:22:47.636Z,100344.94
2018-10-05T08:25:15.621Z,100343.91
2018-10-05T08:27:43.293Z,100343.98
2018-10-05T08:30:12.361Z,100339.73
2018-10-05T08:32:40.893Z,100336.34
2018-10-05T08:35:08.510Z,100329.84
2018-10-05T08:37:36.776Z,100330.06
2018-10-05T08:40:04.775Z,100334.41
2018-10-05T08:42:32.438Z,100324.45
2018-10-05T08:45:00.059Z,100323.09
2018-10-05T08:47:28.112Z,100321.53
2018-10-05T08:49:56.257Z,100317.45
2018-10-05T08:52:23.921Z,100318.73
2018-10-05T08:54:51.876Z,100310.55
2018-10-05T08:57:19.494Z,100313.33
2018-10-05T08:59:48.579Z,100313.40
2018-10-05T09:02:17.103Z,100307.81
2018-10-05T09:04:44.670Z,100307.56
2018-10-05T09:07:12.275Z,100307.35
2018-10-05T09:09:41.233Z,100301.78
2018-10-05T09:12:08.777Z,100301.27
2018-10-05T09:14:36.598Z,100290.41
2018-10-05T09:17:04.530Z,100284.31
2018-10-05T09:19:33.851Z,100274.95
2018-10-05T09:22:01.471Z,100281.47
2018-10-05T09:24:30.206Z,100279.65
2018-10-05T09:26:57.770Z,100270.61
2018-10-05T09:29:25.334Z,100269.45
2018-10-05T09:31:53.333Z,100259.49
2018-10-05T09:34:21.959Z,100252.94
2018-10-05T09:36:50.102Z,100252.42
2018-10-05T09:39:18.770Z,100245.06
2018-10-05T09:41:46.359Z,100238.27
2018-10-05T09:44:17.667Z,100229.06
2018-10-05T09:46:45.674Z,100224.25
2018-10-05T09:49:13.494Z,100222.27
2018-10-05T09:51:44.198Z,100216.45
2018-10-05T09:54:13.066Z,100210.63
2018-10-05T09:56:40.666Z,100208.53
2018-10-05T09:59:08.301Z,100200.52
2018-10-05T10:01:41.358Z,100198.45
2018-10-05T10:04:08.926Z,100198.56
2018-10-05T10:06:36.506Z,100196.66
2018-10-05T10:09:05.858Z,100191.47
2018-10-05T10:11:33.442Z,100184.77
2018-10-05T10:14:01.350Z,100190.97
2018-10-05T10:16:29.258Z,100189.87
2018-10-05T10:18:56.825Z,100190.78
2018-10-05T10:21:24.414Z,100193.34
2018-10-05T10:23:52.461Z,100184.06
2018-10-05T10:26:21.466Z,100184.37
2018-10-05T10:28:50.662Z,100171.06
2018-10-05T10:31:19.529Z,100168.52
2018-10-05T10:33:47.337Z,100166.67
2018-10-05T10:36:14.944Z,100174.61
2018-10-05T10:38:43.239Z,100175.66
2018-10-05T10:41:12.034Z,100163.20
2018-10-05T10:43:39.693Z,100167.50
2018-10-05T10:46:07.671Z,100163.02
2018-10-05T10:48:35.229Z,100155.58
2018-10-05T10:51:02.850Z,100155.53
2018-10-05T10:53:31.613Z,100154.73
2018-10-05T10:55:59.266Z,100141.66
2018-10-05T10:58:26.895Z,100134.59
2018-10-05T11:00:55.407Z,100131.27
2018-10-05T11:03:23.067Z,100126.84
2018-10-05T11:05:50.605Z,100123.70
2018-10-05T11:08:18.593Z,100124.62
2018-10-05T11:10:46.193Z,100116.36
2018-10-05T11:13:13.804Z,100118.50
2018-10-05T11:15:41.776Z,100110.33
2018-10-05T11:18:10.554Z,100098.27
2018-10-05T11:20:39.105Z,100102.20
2018-10-05T11:23:06.999Z,100098.14
2018-10-05T11:25:34.565Z,100094.28
2018-10-05T11:28:02.303Z,100095.70
2018-10-05T11:30:30.173Z,100084.66
2018-10-05T11:32:57.847Z,100074.37
2018-10-05T11:35:26.234Z,100076.17
2018-10-05T11:37:55.196Z,100070.97
2018-10-05T11:40:22.862Z,100062.59
2018-10-05T11:42:50.498Z,100062.64
2018-10-05T11:45:18.669Z,100063.38
2018-10-05T11:47:48.586Z,100064.17
2018-10-05T11:50:18.446Z,100057.08
2018-10-05T11:52:46.682Z,100049.89
2018-10-05T11:55:14.291Z,100050.40
2018-10-05T11:57:41.892Z,100043.75
2018-10-05T12:00:09.978Z,100039.45
2018-10-05T12:02:37.785Z,100043.39
2018-10-05T12:05:06.290Z,100033.44
2018-10-05T12:07:34.981Z,100028.68
2018-10-05T12:10:03.085Z,100028.84
2018-10-05T12:12:30.686Z,100029.23
2018-10-05T12:14:58.558Z,100023.58
2018-10-05T12:17:26.148Z,100017.23
2018-10-05T12:19:53.815Z,100018.36
2018-10-05T12:22:21.486Z,100012.01
2018-10-05T12:24:49.062Z,100005.69
2018-10-05T12:27:17.049Z,99999.05
2018-10-05T12:29:46.117Z,100006.72
2018-10-05T12:32:13.720Z,99996.55
2018-10-05T12:34:41.670Z,100001.28
2018-10-05T12:37:09.255Z,99995.55
2018-10-05T12:39:37.603Z,99996.77
2018-10-05T12:42:05.591Z,99990.40
2018-10-05T12:44:33.136Z,99992.54
2018-10-05T12:47:03.683Z,99993.06
2018-10-05T12:49:31.535Z,99991.41
2018-10-05T12:52:00.827Z,99989.95
2018-10-05T12:54:28.501Z,99990.84
2018-10-05T12:57:00.888Z,99980.96
2018-10-05T12:59:29.739Z,99987.64
2018-10-05T13:01:57.386Z,99979.14
2018-10-05T13:04:25.324Z,99973.03
2018-10-05T13:06:57.638Z,99975.00
2018-10-05T13:09:26.062Z,99969.89
2018-10-05T13:11:54.002Z,99969.18
2018-10-05T13:14:21.566Z,99965.77
2018-10-05T13:16:51.285Z,99962.94
2018-10-05T13:19:19.254Z,99956.05
2018-10-05T13:21:46.910Z,99953.25
2018-10-05T13:24:14.490Z,99946.46
2018-10-05T13:26:42.498Z,99946.89
2018-10-05T13:29:10.091Z,99942.17
2018-10-05T13:31:37.661Z,99940.25
2018-10-05T13:34:06.732Z,99940.69
2018-10-05T13:36:34.365Z,99937.04
2018-10-05T13:39:02.783Z,99928.66
2018-10-05T13:41:30.682Z,99931.06
2018-10-05T13:43:58.521Z,99928.14
2018-10-05T13:46:26.231Z,99926.34
2018-10-05T13:48:56.224Z,99921.94
2018-10-05T13:51:27.329Z,99911.45
2018-10-05T13:53:58.656Z,99911.08
2018-10-05T13:56:28.470Z,99902.78
2018-10-05T13:58:56.734Z,99900.27
2018-10-05T14:01:25.883Z,99896.48
2018-10-05T14:03:53.756Z,99893.33
2018-10-05T14:06:21.337Z,99893.63
2018-10-05T14:08:48.930Z,99891.96
2018-10-05T14:11:18.615Z,99894.07
2018-10-05T14:13:46.235Z,99885.80
2018-10-05T14:16:14.833Z,99887.64
2018-10-05T14:18:44.245Z,99886.18
2018-10-05T14:21:11.851Z,99890.67
2018-10-05T14:23:39.461Z,99876.20
2018-10-05T14:26:07.478Z,99878.62
2018-10-05T14:28:35.113Z,99873.47
2018-10-05T14:31:03.478Z,99871.80
2018-10-05T14:33:31.404Z,99867.31
2018-10-05T14:35:59.797Z,99864.58
2018-10-05T14:38:28.422Z,99861.86
2018-10-05T14:40:57.424Z,99855.77
2018-10-05T14:43:25.812Z,99843.50
2018-10-05T14:45:53.769Z,99840.77
2018-10-05T14:48:21.681Z,99844.25
2018-10-05T14:50:49.829Z,99839.96
2018-10-05T14:53:17.433Z,99837.98
2018-10-05T14:55:45.499Z,99835.47
2018-10-05T14:58:13.108Z,99829.61
2018-10-05T15:00:40.705Z,99825.79
2018-10-05T15:03:08.738Z,99821.45
2018-10-05T15:05:36.323Z,99818.73
2018-10-05T15:08:03.914Z,99818.01
2018-10-05T15:10:32.873Z,99822.16
2018-10-05T15:13:01.021Z,99812.96
2018-10-05T15:15:28.683Z,99809.78
2018-10-05T15:18:01.381Z,99803.17
2018-10-05T15:20:28.959Z,99799.34
2018-10-05T15:22:57.672Z,99795.06
2018-10-05T15:25:26.981Z,99792.19
2018-10-05T15:27:54.566Z,99788.27
2018-10-05T15:30:23.350Z,99781.71
2018-10-05T15:32:52.365Z,99779.63
2018-10-05T15:35:20.003Z,99769.62
2018-10-05T15:37:47.675Z,99765.67
2018-10-05T15:40:15.749Z,99762.55
2018-10-05T15:42:43.509Z,99754.31
2018-10-05T15:45:11.470Z,99753.36
2018-10-05T15:47:39.541Z,99766.40
2018-10-05T15:50:07.140Z,99766.13
2018-10-05T15:52:35.711Z,99763.61
2018-10-05T15:55:05.640Z,99777.00
2018-10-05T15:57:33.280Z,99768.50
2018-10-05T16:00:02.067Z,99765.85
2018-10-05T16:02:30.784Z,99765.35
2018-10-05T16:05:06.357Z,99772.08
2018-10-05T16:07:34.969Z,99768.16
2018-10-05T16:10:02.980Z,99775.23
2018-10-05T16:12:31.240Z,99778.28
2018-10-05T16:14:59.583Z,99772.14
2018-10-05T16:17:30.017Z,99780.71
2018-10-05T16:19:57.764Z,99777.90
2018-10-05T16:22:25.470Z,99774.26
2018-10-05T16:24:55.094Z,99782.05
2018-10-05T16:27:22.691Z,99779.44
2018-10-05T16:29:50.249Z,99780.98
2018-10-05T16:32:19.921Z,99781.88
2018-10-05T16:34:47.528Z,99787.68
2018-10-05T16:37:15.121Z,99788.56
2018-10-05T16:39:43.789Z,99788.23
2018-10-05T16:42:11.746Z,99784.03
2018-10-05T16:44:39.336Z,99788.55
2018-10-05T16:47:08.300Z,99787.02
2018-10-05T16:49:35.891Z,99781.78
2018-10-05T16:52:03.486Z,99790.02
2018-10-05T16:54:31.386Z,99789.81
2018-10-05T16:57:00.919Z,99796.69
2018-10-05T16:59:28.509Z,99795.33
2018-10-05T17:01:56.540Z,99798.51
2018-10-05T17:04:24.333Z,99801.47
2018-10-05T17:06:51.917Z,99802.73
2018-10-05T17:09:19.775Z,99800.47
2018-10-05T17:11:47.514Z,99797.00
2018-10-05T17:14:15.773Z,99809.37
2018-10-05T17:16:44.397Z,99807.09
2018-10-05T17:19:13.998Z,99810.67
2018-10-05T17:21:41.593Z,99808.55
2018-10-05T17:24:09.650Z,99809.08
2018-10-05T17:26:37.230Z,99810.47
2018-10-05T17:29:05.478Z,99810.17
2018-10-05T17:31:33.426Z,99809.69
2018-10-05T17:34:01.703Z,99806.66
2018-10-05T17:36:29.498Z,99801.10
2018-10-05T17:38:58.790Z,99801.80
2018-10-05T17:41:26.575Z,99801.30
2018-10-05T17:43:54.170Z,99798.11
2018-10-05T17:46:22.090Z,99795.08
2018-10-05T17:48:50.681Z,99784.66
2018-10-05T17:51:21.514Z,99794.09
2018-10-05T17:53:49.927Z,99790.91
2018-10-05T17:56:17.470Z,99784.00
2018-10-05T17:58:46.213Z,99784.34
2018-10-05T18:01:13.803Z,99790.45
2018-10-05T18:03:41.685Z,99789.45
2018-10-05T18:06:13.785Z,99782.21
2018-10-05T18:08:43.378Z,99783.58
2018-10-05T18:11:12.449Z,99780.58
2018-10-05T18:13:40.500Z,99781.91
2018-10-05T18:16:09.440Z,99773.31
2018-10-05T18:18:37.866Z,99776.72
2018-10-05T18:21:05.950Z,99781.90
2018-10-05T18:23:34.050Z,99772.97
2018-10-05T18:26:01.702Z,99772.46
2018-10-05T18:28:29.803Z,99770.61
2018-10-05T18:30:57.452Z,99763.52
2018-10-05T18:33:29.022Z,99765.69
2018-10-05T18:35:57.733Z,99766.50
2018-10-05T18:38:31.433Z,99772.20
2018-10-05T18:41:00.630Z,99770.32
2018-10-05T18:43:29.480Z,99770.94
2018-10-05T18:45:57.070Z,99772.89
2018-10-05T18:48:25.361Z,99768.03
2018-10-05T18:50:53.475Z,99763.85
2018-10-05T18:53:21.812Z,99761.92
2018-10-05T18:55:50.261Z,99757.75
2018-10-05T18:58:21.855Z,99751.39
2018-10-05T19:00:50.670Z,99745.38
2018-10-05T19:03:18.262Z,99738.66
2018-10-05T19:05:47.200Z,99734.28
2018-10-05T19:08:15.660Z,99742.02
2018-10-05T19:10:44.358Z,99735.31
2018-10-05T19:13:12.201Z,99738.31
2018-10-05T19:15:44.341Z,99726.38
2018-10-05T19:18:12.595Z,99728.56
2018-10-05T19:20:42.396Z,99728.57
2018-10-05T19:23:09.970Z,99727.92
2018-10-05T19:25:37.799Z,99725.56
2018-10-05T19:28:07.362Z,99723.88
2018-10-05T19:30:34.955Z,99728.91
2018-10-05T19:33:04.061Z,99727.91
2018-10-05T19:35:32.033Z,99725.86
2018-10-05T19:38:05.420Z,99726.20
2018-10-05T19:40:32.967Z,99727.91
2018-10-05T19:43:01.000Z,99722.84
2018-10-05T19:45:28.551Z,99724.02
2018-10-05T19:47:56.940Z,99720.50
2018-10-05T19:50:29.621Z,99724.86
2018-10-05T19:52:57.202Z,99720.97
2018-10-05T19:55:25.743Z,99720.14
2018-10-05T19:57:54.546Z,99725.81
2018-10-05T20:00:25.838Z,99728.78
2018-10-05T20:02:55.713Z,99728.06
2018-10-05T20:05:25.327Z,99731.23
2018-10-05T20:07:54.529Z,99729.38
2018-10-05T20:10:23.898Z,99727.00
2018-10-05T20:12:55.537Z,99726.64
2018-10-05T20:15:24.150Z,99718.39
2018-10-05T20:17:52.442Z,99718.87
2018-10-05T20:20:20.697Z,99713.51
2018-10-05T20:22:49.547Z,99707.95
2018-10-05T20:25:25.886Z,99706.80
2018-10-05T20:27:53.925Z,99707.62
2018-10-05T20:30:21.514Z,99703.73
2018-10-05T20:32:49.185Z,99701.05
2018-10-05T20:35:20.118Z,99699.86
2018-10-05T20:37:48.156Z,99703.25
2018-10-05T20:40:15.565Z,99700.72
2018-10-05T20:42:43.584Z,99703.77
2018-10-05T20:45:11.197Z,99699.10
2018-10-05T20:47:40.336Z,99697.76
2018-10-05T20:50:09.642Z,99698.80
2018-10-05T20:52:37.190Z,99692.41
2018-10-05T20:55:05.352Z,99689.73
2018-10-05T20:57:33.365Z,99691.07
2018-10-05T21:00:01.033Z,99690.91
2018-10-05T21:02:28.576Z,99691.59
2018-10-05T21:04:57.518Z,99696.47
2018-10-05T21:07:25.807Z,99692.43
2018-10-05T21:09:53.730Z,99691.45
2018-10-05T21:12:22.183Z,99692.43
2018-10-05T21:14:49.810Z,99692.09
2018-10-05T21:17:17.415Z,99687.39
2018-10-05T21:19:46.230Z,99692.28
2018-10-05T21:22:14.484Z,99696.13
2018-10-05T21:24:42.085Z,99691.61
2018-10-05T21:27:11.218Z,99684.89
2018-10-05T21:29:38.798Z,99687.06
2018-10-05T21:32:06.637Z,99679.85
2018-10-05T21:34:36.847Z,99682.69
2018-10-05T21:37:04.431Z,99684.53
2018-10-05T21:39:31.997Z,99678.97
2018-10-05T21:41:59.945Z,99683.83
2018-10-05T21:44:27.601Z,99686.19
2018-10-05T21:46:56.415Z,99684.33
2018-10-05T21:49:24.795Z,99682.98
2018-10-05T21:51:57.941Z,99682.95
2018-10-05T21:54:25.551Z,99678.59
2018-10-05T21:56:53.474Z,99677.22
2018-10-05T21:59:21.086Z,99681.25
2018-10-05T22:01:49.747Z,99682.59
2018-10-05T22:04:18.659Z,99680.42
2018-10-05T22:06:46.245Z,99683.23
2018-10-05T22:09:14.433Z,99686.59
2018-10-05T22:11:42.646Z,99677.30
2018-10-05T22:14:10.192Z,99677.79
2018-10-05T22:16:37.772Z,99674.09
2018-10-05T22:19:05.695Z,99673.05
2018-10-05T22:21:33.243Z,99675.06
2018-10-05T22:24:00.821Z,99675.36
2018-10-05T22:26:30.070Z,99671.48
2018-10-05T22:28:57.708Z,99670.66
2018-10-05T22:31:25.298Z,99671.33
2018-10-05T22:33:53.546Z,99668.31
2018-10-05T22:36:21.201Z,99658.88
2018-10-05T22:38:49.809Z,99666.56
2018-10-05T22:41:17.705Z,99667.90
2018-10-05T22:43:46.410Z,99663.54
2018-10-05T22:46:15.390Z,99670.91
2018-10-05T22:48:43.357Z,99663.87
2018-10-05T22:51:12.438Z,99666.22
2018-10-05T22:53:41.574Z,99664.58
2018-10-05T22:56:09.683Z,99661.91
2018-10-05T22:58:37.327Z,99658.55
2018-10-05T23:01:05.014Z,99653.14
2018-10-05T23:03:33.148Z,99657.83
2018-10-05T23:06:00.790Z,99656.16
2018-10-05T23:08:28.934Z,99657.16
2018-10-05T23:10:58.514Z,99656.30
2018-10-05T23:13:26.156Z,99652.80
2018-10-05T23:15:53.830Z,99653.06
2018-10-05T23:18:22.685Z,99653.58
2018-10-05T23:20:50.249Z,99650.70
2018-10-05T23:23:17.882Z,99650.03
2018-10-05T23:25:45.862Z,99647.84
2018-10-05T23:28:14.332Z,99643.81
2018-10-05T23:30:41.924Z,99646.64
2018-10-05T23:33:09.562Z,99645.30
2018-10-05T23:35:37.563Z,99639.94
2018-10-05T23:38:05.169Z,99635.91
2018-10-05T23:40:32.754Z,99637.59
2018-10-05T23:43:00.712Z,99636.63
2018-10-05T23:45:28.298Z,99637.30
2018-10-05T23:47:55.914Z,99631.59
2018-10-05T23:50:23.550Z,99636.44
2018-10-05T23:52:53.385Z,99638.30
2018-10-05T23:55:23.530Z,99636.10
2018-10-05T23:57:51.091Z,99629.91
